createdAt,value
2018-06-19T00:01:28.585Z,61.04
2018-06-19T00:03:59.281Z,61.16
2018-06-19T00:06:29.945Z,60.18
2018-06-19T00:09:00.090Z,61.83
2018-06-19T00:11:30.707Z,61.54
2018-06-19T00:14:01.077Z,61.94
2018-06-19T00:16:31.656Z,61.59
2018-06-19T00:19:02.625Z,60.91
2018-06-19T00:21:39.409Z,60.91
2018-06-19T00:24:10.095Z,61.13
2018-06-19T00:26:40.196Z,62.06
2018-06-19T00:29:11.222Z,61.56
2018-06-19T00:31:41.953Z,61.27
2018-06-19T00:34:12.830Z,60.72
2018-06-19T00:36:43.458Z,60.78
2018-06-19T00:39:14.268Z,60.78
2018-06-19T00:41:45.003Z,60.50
2018-06-19T00:44:15.771Z,59.93
2018-06-19T00:46:49.711Z,60.67
2018-06-19T00:49:20.569Z,59.93
2018-06-19T00:51:51.255Z,60.35
2018-06-19T00:54:22.121Z,60.43
2018-06-19T00:56:57.253Z,59.54
2018-06-19T00:59:29.116Z,60.34
2018-06-19T01:02:01.576Z,60.31
2018-06-19T01:04:32.299Z,60.87
2018-06-19T01:07:02.981Z,60.12
2018-06-19T01:09:33.628Z,60.25
2018-06-19T01:12:05.162Z,60.81
2018-06-19T01:14:36.004Z,61.21
2018-06-19T01:17:06.629Z,60.73
2018-06-19T01:19:37.108Z,61.16
2018-06-19T01:22:07.799Z,60.63
2018-06-19T01:24:38.654Z,60.90
2018-06-19T01:27:09.601Z,60.91
2018-06-19T01:29:40.349Z,61.07
2018-06-19T01:32:11.182Z,60.75
2018-06-19T01:34:41.910Z,61.49
2018-06-19T01:37:12.546Z,60.87
2018-06-19T01:39:43.309Z,61.17
2018-06-19T01:42:14.054Z,61.65
2018-06-19T01:44:44.593Z,61.03
2018-06-19T01:47:15.276Z,61.87
2018-06-19T01:49:46.038Z,61.37
2018-06-19T01:52:16.253Z,61.35
2018-06-19T01:54:46.762Z,61.74
2018-06-19T01:57:17.221Z,62.79
2018-06-19T01:59:48.018Z,63.57
2018-06-19T02:02:18.702Z,63.06
2018-06-19T02:04:49.137Z,62.57
2018-06-19T02:07:19.862Z,62.38
2018-06-19T02:09:50.647Z,63.52
2018-06-19T02:12:21.384Z,62.98
2018-06-19T02:14:52.222Z,62.90
2018-06-19T02:17:22.952Z,63.90
2018-06-19T02:19:53.866Z,63.96
2018-06-19T02:22:24.574Z,63.26
2018-06-19T02:24:55.164Z,63.75
2018-06-19T02:27:25.889Z,63.89
2018-06-19T02:29:56.573Z,63.20
2018-06-19T02:32:27.355Z,63.84
2018-06-19T02:34:58.182Z,63.37
2018-06-19T02:37:28.717Z,63.92
2018-06-19T02:39:59.601Z,63.49
2018-06-19T02:42:30.099Z,63.90
2018-06-19T02:45:01.049Z,63.16
2018-06-19T02:47:31.807Z,63.76
2018-06-19T02:50:03.369Z,64.79
2018-06-19T02:52:34.147Z,64.57
2018-06-19T02:55:04.711Z,64.42
2018-06-19T02:57:34.826Z,63.02
2018-06-19T03:00:06.310Z,64.36
2018-06-19T03:02:37.126Z,63.75
2018-06-19T03:05:08.001Z,64.40
2018-06-19T03:07:38.758Z,63.84
2018-06-19T03:10:09.634Z,64.66
2018-06-19T03:12:39.718Z,64.48
2018-06-19T03:15:10.383Z,63.84
2018-06-19T03:17:40.948Z,63.80
2018-06-19T03:20:11.573Z,64.17
2018-06-19T03:22:42.234Z,64.17
2018-06-19T03:25:13.101Z,63.84
2018-06-19T03:27:43.913Z,63.71
2018-06-19T03:30:14.735Z,64.31
2018-06-19T03:32:45.421Z,63.89
2018-06-19T03:35:15.752Z,63.85
2018-06-19T03:37:46.586Z,63.76
2018-06-19T03:40:17.528Z,62.58
2018-06-19T03:42:48.258Z,62.60
2018-06-19T03:45:19.139Z,61.91
2018-06-19T03:47:49.565Z,61.51
2018-06-19T03:50:20.286Z,61.65
2018-06-19T03:52:50.914Z,62.05
2018-06-19T03:55:21.641Z,61.73
2018-06-19T03:57:52.293Z,61.50
2018-06-19T04:00:23.029Z,61.36
2018-06-19T04:02:53.461Z,61.65
2018-06-19T04:05:24.226Z,61.43
2018-06-19T04:07:55.075Z,60.71
2018-06-19T04:10:25.963Z,61.23
2018-06-19T04:12:56.100Z,60.43
2018-06-19T04:15:27.006Z,60.54
2018-06-19T04:17:57.645Z,60.06
2018-06-19T04:20:28.261Z,60.31
2018-06-19T04:22:58.841Z,61.13
2018-06-19T04:25:29.516Z,60.33
2018-06-19T04:28:00.198Z,60.01
2018-06-19T04:30:30.881Z,59.86
2018-06-19T04:33:01.558Z,59.60
2018-06-19T04:35:32.502Z,59.61
2018-06-19T04:38:02.733Z,58.92
2018-06-19T04:40:33.465Z,59.21
2018-06-19T04:43:04.421Z,57.99
2018-06-19T04:45:34.926Z,58.35
2018-06-19T04:48:05.809Z,56.60
2018-06-19T04:50:36.447Z,56.07
2018-06-19T04:53:07.325Z,55.50
2018-06-19T04:55:38.151Z,55.00
2018-06-19T04:58:08.885Z,53.90
2018-06-19T05:00:38.973Z,54.21
2018-06-19T05:03:09.641Z,52.56
2018-06-19T05:05:39.821Z,50.52
2018-06-19T05:08:10.573Z,50.92
2018-06-19T05:10:42.173Z,50.37
2018-06-19T05:13:12.950Z,49.51
2018-06-19T05:15:43.669Z,50.46
2018-06-19T05:18:14.722Z,50.23
2018-06-19T05:20:45.269Z,49.63
2018-06-19T05:23:16.185Z,49.02
2018-06-19T05:25:46.866Z,48.46
2018-06-19T05:28:17.517Z,48.53
2018-06-19T05:30:48.174Z,47.79
2018-06-19T05:33:18.933Z,47.46
2018-06-19T05:35:49.549Z,46.63
2018-06-19T05:38:20.335Z,47.01
2018-06-19T05:40:51.004Z,46.40
2018-06-19T05:43:22.005Z,47.01
2018-06-19T05:45:53.618Z,46.12
2018-06-19T05:48:24.309Z,46.30
2018-06-19T05:50:55.120Z,45.92
2018-06-19T05:53:25.853Z,45.63
2018-06-19T05:55:56.431Z,46.89
2018-06-19T05:58:27.138Z,45.39
2018-06-19T06:00:57.794Z,45.14
2018-06-19T06:03:28.590Z,44.25
2018-06-19T06:05:59.265Z,46.48
2018-06-19T06:08:30.147Z,44.45
2018-06-19T06:11:00.249Z,44.24
2018-06-19T06:13:30.496Z,43.96
2018-06-19T06:16:01.091Z,43.06
2018-06-19T06:18:31.961Z,43.27
2018-06-19T06:21:02.694Z,41.03
2018-06-19T06:23:33.401Z,43.65
2018-06-19T06:26:04.002Z,41.29
2018-06-19T06:28:34.878Z,40.77
2018-06-19T06:31:04.976Z,40.99
2018-06-19T06:33:36.117Z,39.62
2018-06-19T06:36:07.350Z,40.95
2018-06-19T06:38:38.070Z,39.47
2018-06-19T06:41:08.925Z,39.55
2018-06-19T06:43:39.778Z,38.48
2018-06-19T06:46:10.534Z,38.27
2018-06-19T06:48:40.864Z,38.13
2018-06-19T06:51:11.649Z,38.37
2018-06-19T06:53:42.372Z,37.26
2018-06-19T06:56:13.166Z,38.22
2018-06-19T06:58:43.957Z,35.50
2018-06-19T07:01:14.697Z,36.02
2018-06-19T07:03:45.473Z,35.98
2018-06-19T07:06:16.084Z,36.22
2018-06-19T07:08:47.119Z,37.47
2018-06-19T07:11:17.823Z,35.77
2018-06-19T07:13:48.682Z,35.01
2018-06-19T07:16:19.599Z,33.32
2018-06-19T07:18:50.203Z,32.25
2018-06-19T07:21:22.983Z,32.04
2018-06-19T07:23:56.675Z,33.59
2018-06-19T07:26:27.447Z,32.27
2018-06-19T07:28:58.134Z,31.64
2018-06-19T07:31:28.754Z,32.20
2018-06-19T07:33:59.397Z,32.50
2018-06-19T07:36:30.072Z,30.29
2018-06-19T07:39:00.981Z,29.46
2018-06-19T07:41:31.687Z,30.78
2018-06-19T07:44:02.407Z,30.52
2018-06-19T07:46:33.002Z,31.18
2018-06-19T07:49:03.878Z,31.75
2018-06-19T07:51:34.581Z,31.18
2018-06-19T07:54:05.596Z,30.86
2018-06-19T07:56:36.712Z,32.69
2018-06-19T07:59:08.770Z,35.73
2018-06-19T08:01:39.868Z,33.93
2018-06-19T08:04:11.653Z,34.53
2018-06-19T08:06:42.289Z,34.63
2018-06-19T08:09:13.225Z,32.62
2018-06-19T08:11:43.845Z,33.83
2018-06-19T08:14:14.798Z,34.30
2018-06-19T08:16:45.495Z,32.46
2018-06-19T08:19:16.485Z,31.72
2018-06-19T08:21:47.225Z,32.87
2018-06-19T08:24:18.460Z,31.60
2018-06-19T08:26:50.371Z,33.04
2018-06-19T08:29:21.506Z,30.14
2018-06-19T08:31:53.050Z,30.46
2018-06-19T08:34:24.150Z,33.02
2018-06-19T08:36:55.269Z,31.12
2018-06-19T08:39:25.887Z,30.46
2018-06-19T08:42:05.284Z,32.29
2018-06-19T08:44:37.575Z,33.79
2018-06-19T08:47:08.598Z,32.08
2018-06-19T08:49:39.046Z,34.40
2018-06-19T08:52:10.053Z,34.50
2018-06-19T08:54:41.622Z,36.38
2018-06-19T08:57:13.069Z,35.72
2018-06-19T08:59:43.421Z,38.42
2018-06-19T09:02:15.256Z,38.55
2018-06-19T09:04:46.663Z,37.33
2018-06-19T09:07:18.035Z,39.00
2018-06-19T09:09:48.642Z,39.56
2018-06-19T09:12:19.601Z,41.42
2018-06-19T09:14:50.635Z,43.23
2018-06-19T09:17:21.659Z,44.97
2018-06-19T09:19:52.879Z,42.11
2018-06-19T09:22:24.403Z,39.86
2018-06-19T09:24:56.319Z,38.87
2018-06-19T09:27:27.440Z,32.72
2018-06-19T09:29:58.399Z,33.63
2018-06-19T09:32:29.213Z,35.48
2018-06-19T09:35:00.356Z,33.58
2018-06-19T09:37:31.705Z,32.14
2018-06-19T09:40:03.009Z,31.56
2018-06-19T09:42:33.691Z,30.86
2018-06-19T09:45:04.604Z,33.50
2018-06-19T09:47:37.211Z,29.87
2018-06-19T09:50:08.161Z,30.71
2018-06-19T09:52:38.875Z,32.36
2018-06-19T09:55:10.631Z,30.58
2018-06-19T09:57:42.435Z,29.50
2018-06-19T10:00:18.729Z,30.49
2018-06-19T10:02:49.162Z,30.49
2018-06-19T10:05:20.089Z,31.12
2018-06-19T10:07:51.846Z,30.97
2018-06-19T10:10:23.030Z,29.23
2018-06-19T10:12:53.996Z,31.62
2018-06-19T10:15:24.901Z,31.27
2018-06-19T10:17:55.117Z,31.51
2018-06-19T10:20:25.613Z,26.73
2018-06-19T10:22:56.461Z,28.72
2018-06-19T10:25:27.102Z,28.96
2018-06-19T10:27:57.558Z,27.22
2018-06-19T10:30:29.207Z,26.09
2018-06-19T10:33:00.462Z,25.88
2018-06-19T10:35:31.371Z,28.23
2018-06-19T10:38:01.809Z,30.66
2018-06-19T10:40:32.184Z,27.91
2018-06-19T10:43:02.551Z,27.86
2018-06-19T10:45:32.778Z,28.21
2018-06-19T10:48:02.690Z,30.34
2018-06-19T10:50:32.590Z,26.25
2018-06-19T10:53:02.461Z,28.47
2018-06-19T10:55:33.058Z,26.63
2018-06-19T10:58:03.377Z,26.59
2018-06-19T11:00:33.815Z,26.47
2018-06-19T11:03:04.358Z,24.14
2018-06-19T11:05:35.090Z,23.59
2018-06-19T11:08:05.469Z,28.03
2018-06-19T11:10:35.991Z,30.94
2018-06-19T11:13:06.790Z,25.94
2018-06-19T11:15:37.699Z,26.82
2018-06-19T11:18:08.029Z,24.13
2018-06-19T11:20:40.134Z,21.87
2018-06-19T11:24:40.403Z,20.78
2018-06-19T11:27:11.366Z,27.16
2018-06-19T11:29:42.641Z,24.94
2018-06-19T11:32:15.242Z,26.21
2018-06-19T11:34:48.766Z,27.81
2018-06-19T11:37:19.974Z,27.70
2018-06-19T11:39:50.995Z,27.37
2018-06-19T11:42:22.443Z,17.92
2018-06-19T11:44:53.343Z,18.79
2018-06-19T11:47:24.460Z,17.34
2018-06-19T11:49:55.171Z,18.91
2018-06-19T11:52:25.941Z,17.95
2018-06-19T11:54:56.750Z,18.49
2018-06-19T11:57:27.903Z,19.18
2018-06-19T11:59:58.605Z,22.14
2018-06-19T12:02:29.454Z,19.55
2018-06-19T12:05:00.145Z,19.28
2018-06-19T12:07:45.682Z,19.10
2018-06-19T12:10:17.336Z,18.40
2018-06-19T12:12:48.541Z,20.02
2018-06-19T12:15:19.254Z,22.13
2018-06-19T12:17:50.289Z,20.35
2018-06-19T12:20:20.494Z,19.33
2018-06-19T12:22:51.394Z,18.63
2018-06-19T12:25:22.114Z,20.36
2018-06-19T12:27:53.003Z,20.08
2018-06-19T12:30:22.933Z,18.23
2018-06-19T12:32:53.387Z,20.01
2018-06-19T12:35:23.993Z,17.04
2018-06-19T12:37:54.956Z,17.43
2018-06-19T12:40:25.828Z,18.22
2018-06-19T12:42:56.690Z,17.92
2018-06-19T12:45:27.222Z,17.45
2018-06-19T12:47:58.237Z,16.64
2018-06-19T12:51:47.612Z,16.35
2018-06-19T12:54:51.862Z,18.71
2018-06-19T12:57:22.142Z,17.34
2018-06-19T12:59:52.927Z,17.08
2018-06-19T13:02:23.575Z,17.20
2018-06-19T13:05:10.332Z,17.74
2018-06-19T13:07:43.020Z,17.30
2018-06-19T13:10:14.284Z,17.30
2018-06-19T13:13:25.234Z,18.87
2018-06-19T13:15:56.326Z,15.82
2018-06-19T13:18:44.075Z,15.17
2018-06-19T13:21:14.805Z,16.79
2018-06-19T13:23:45.465Z,17.24
2018-06-19T13:26:16.150Z,16.56
2018-06-19T13:30:01.906Z,17.59
2018-06-19T13:32:33.469Z,19.36
2018-06-19T13:35:04.668Z,20.40
2018-06-19T13:37:36.258Z,19.32
2018-06-19T13:41:29.987Z,19.12
2018-06-19T13:44:17.030Z,19.76
2018-06-19T13:46:47.861Z,19.87
2018-06-19T13:49:18.989Z,18.45
2018-06-19T13:51:49.886Z,17.38
2018-06-19T13:54:20.814Z,19.04
2018-06-19T13:57:52.522Z,17.42
2018-06-19T14:00:23.371Z,21.45
2018-06-19T14:02:54.013Z,20.96
2018-06-19T14:05:25.034Z,22.82
2018-06-19T14:08:13.079Z,22.60
2018-06-19T14:11:00.206Z,21.11
2018-06-19T14:13:30.317Z,19.58
2018-06-19T14:16:01.447Z,21.68
2018-06-19T14:18:32.606Z,23.43
2018-06-19T14:21:03.390Z,22.23
2018-06-19T14:23:34.171Z,22.41
2018-06-19T14:26:04.969Z,20.97
2018-06-19T14:28:35.742Z,21.79
2018-06-19T14:31:06.573Z,22.49
2018-06-19T14:33:36.739Z,21.22
2018-06-19T14:36:07.649Z,21.26
2018-06-19T14:38:38.303Z,21.91
2018-06-19T14:41:09.083Z,23.33
2018-06-19T14:43:39.871Z,22.57
2018-06-19T14:46:10.707Z,23.45
2018-06-19T14:48:41.606Z,24.37
2018-06-19T14:51:12.592Z,23.00
2018-06-19T14:53:43.166Z,23.98
2018-06-19T14:56:14.014Z,23.62
2018-06-19T14:58:44.847Z,22.87
2018-06-19T15:01:15.635Z,23.30
2018-06-19T15:03:46.399Z,21.90
2018-06-19T15:06:17.290Z,22.55
2018-06-19T15:08:48.022Z,21.19
2018-06-19T15:11:18.851Z,20.60
2018-06-19T15:13:49.533Z,21.20
2018-06-19T15:16:21.338Z,19.06
2018-06-19T15:18:52.129Z,21.52
2018-06-19T15:21:23.042Z,19.95
2018-06-19T15:23:53.750Z,20.37
2018-06-19T15:26:24.674Z,20.75
2018-06-19T15:28:55.423Z,22.27
2018-06-19T15:31:26.149Z,22.88
2018-06-19T15:33:56.890Z,21.15
2018-06-19T15:36:27.698Z,22.27
2018-06-19T15:38:58.566Z,22.44
2018-06-19T15:41:31.021Z,23.19
2018-06-19T15:44:01.712Z,22.58
2018-06-19T15:46:32.429Z,23.04
2018-06-19T15:49:03.277Z,22.59
2018-06-19T15:51:34.290Z,23.57
2018-06-19T15:54:05.222Z,23.20
2018-06-19T15:56:35.996Z,23.71
2018-06-19T15:59:06.132Z,22.08
2018-06-19T16:01:37.199Z,23.75
2018-06-19T16:04:08.041Z,23.22
2018-06-19T16:06:39.013Z,22.74
2018-06-19T16:09:11.568Z,23.61
2018-06-19T16:11:42.390Z,22.37
2018-06-19T16:14:13.042Z,22.85
2018-06-19T16:16:44.038Z,23.14
2018-06-19T16:19:14.822Z,23.55
2018-06-19T16:21:45.601Z,23.66
2018-06-19T16:24:16.281Z,22.25
2018-06-19T16:26:47.117Z,23.18
2018-06-19T16:29:18.069Z,24.82
2018-06-19T16:31:49.689Z,24.48
2018-06-19T16:34:20.230Z,24.23
2018-06-19T16:36:51.902Z,24.31
2018-06-19T16:39:22.635Z,24.98
2018-06-19T16:41:53.319Z,25.32
2018-06-19T16:44:23.955Z,24.26
2018-06-19T16:46:54.834Z,24.68
2018-06-19T16:49:25.014Z,24.65
2018-06-19T16:51:55.866Z,25.64
2018-06-19T16:54:26.705Z,24.51
2018-06-19T16:56:57.426Z,24.30
2018-06-19T16:59:28.142Z,26.18
2018-06-19T17:01:58.810Z,26.17
2018-06-19T17:04:29.446Z,26.69
2018-06-19T17:07:00.321Z,26.99
2018-06-19T17:09:31.176Z,26.98
2018-06-19T17:12:02.221Z,27.22
2018-06-19T17:14:32.791Z,27.92
2018-06-19T17:17:03.719Z,28.89
2018-06-19T17:19:34.361Z,28.36
2018-06-19T17:22:05.198Z,28.07
2018-06-19T17:24:35.821Z,29.10
2018-06-19T17:27:06.823Z,27.87
2018-06-19T17:29:37.589Z,28.46
2018-06-19T17:32:08.586Z,29.10
2018-06-19T17:34:39.321Z,29.12
2018-06-19T17:37:09.633Z,29.86
2018-06-19T17:39:40.332Z,30.23
2018-06-19T17:42:11.202Z,30.54
2018-06-19T17:44:41.224Z,30.46
2018-06-19T17:47:12.194Z,30.49
2018-06-19T17:49:42.905Z,31.16
2018-06-19T17:52:13.879Z,31.41
2018-06-19T17:54:44.635Z,30.79
2018-06-19T17:57:15.490Z,31.21
2018-06-19T17:59:46.021Z,33.08
2018-06-19T18:02:16.862Z,32.58
2018-06-19T18:04:47.563Z,32.92
2018-06-19T18:07:18.498Z,32.80
2018-06-19T18:09:49.117Z,33.69
2018-06-19T18:12:19.917Z,33.55
2018-06-19T18:14:50.113Z,33.70
2018-06-19T18:17:20.678Z,34.74
2018-06-19T18:19:51.269Z,34.86
2018-06-19T18:22:22.107Z,35.05
2018-06-19T18:24:52.779Z,35.19
2018-06-19T18:27:23.417Z,35.60
2018-06-19T18:29:54.130Z,35.55
2018-06-19T18:32:25.118Z,36.39
2018-06-19T18:34:55.808Z,36.91
2018-06-19T18:37:26.662Z,37.62
2018-06-19T18:39:57.308Z,38.28
2018-06-19T18:42:28.294Z,37.81
2018-06-19T18:44:59.166Z,38.88
2018-06-19T18:47:30.073Z,38.83
2018-06-19T18:50:00.222Z,39.29
2018-06-19T18:52:31.981Z,41.29
2018-06-19T18:55:02.447Z,40.96
2018-06-19T18:57:32.501Z,42.01
2018-06-19T19:00:03.214Z,41.17
2018-06-19T19:02:34.411Z,43.35
2018-06-19T19:05:05.193Z,42.95
2018-06-19T19:07:35.993Z,43.93
2018-06-19T19:10:11.489Z,42.47
2018-06-19T19:12:42.485Z,43.62
2018-06-19T19:15:18.109Z,42.16
2018-06-19T19:17:54.613Z,42.85
2018-06-19T19:20:25.315Z,42.46
2018-06-19T19:22:56.083Z,42.10
2018-06-19T19:25:26.217Z,43.03
2018-06-19T19:28:01.647Z,43.14
2018-06-19T19:30:32.266Z,43.81
2018-06-19T19:33:03.245Z,44.06
2018-06-19T19:35:33.912Z,44.72
2018-06-19T19:38:09.706Z,44.67
2018-06-19T19:40:40.386Z,43.86
2018-06-19T19:43:11.734Z,44.30
2018-06-19T19:45:42.364Z,45.09
2018-06-19T19:48:17.899Z,46.04
2018-06-19T19:50:48.443Z,47.01
2018-06-19T19:53:19.294Z,46.11
2018-06-19T19:55:54.839Z,47.86
2018-06-19T19:58:30.387Z,48.20
2018-06-19T20:01:01.107Z,47.59
2018-06-19T20:03:31.733Z,46.81
2018-06-19T20:06:02.353Z,46.07
2018-06-19T20:08:33.141Z,45.52
2018-06-19T20:11:03.765Z,45.18
2018-06-19T20:13:34.514Z,45.36
2018-06-19T20:16:05.202Z,46.13
2018-06-19T20:18:35.965Z,47.48
2018-06-19T20:21:06.715Z,46.46
2018-06-19T20:23:37.500Z,47.41
2018-06-19T20:26:08.206Z,47.15
2018-06-19T20:28:39.118Z,45.53
2018-06-19T20:31:09.855Z,45.45
2018-06-19T20:33:40.666Z,46.29
2018-06-19T20:36:11.277Z,46.84
2018-06-19T20:38:42.069Z,45.90
2018-06-19T20:41:12.747Z,46.50
2018-06-19T20:43:43.691Z,47.11
2018-06-19T20:46:14.373Z,46.49
2018-06-19T20:48:45.010Z,46.13
2018-06-19T20:51:15.467Z,46.93
2018-06-19T20:53:46.727Z,47.70
2018-06-19T20:56:17.512Z,48.48
2018-06-19T20:58:48.360Z,49.24
2018-06-19T21:01:19.073Z,49.15
2018-06-19T21:03:49.977Z,49.13
2018-06-19T21:06:20.744Z,49.45
2018-06-19T21:08:51.745Z,51.23
2018-06-19T21:11:22.346Z,52.39
2018-06-19T21:13:53.333Z,52.06
2018-06-19T21:16:23.985Z,50.95
2018-06-19T21:18:54.701Z,50.73
2018-06-19T21:21:25.373Z,51.55
2018-06-19T21:23:56.094Z,50.96
2018-06-19T21:26:26.781Z,51.46
2018-06-19T21:28:57.565Z,51.46
2018-06-19T21:31:28.278Z,51.38
2018-06-19T21:33:58.651Z,52.18
2018-06-19T21:36:29.296Z,52.02
2018-06-19T21:39:00.013Z,52.17
2018-06-19T21:41:30.690Z,52.26
2018-06-19T21:44:01.519Z,52.69
2018-06-19T21:46:32.166Z,52.54
2018-06-19T21:49:02.512Z,52.41
2018-06-19T21:51:33.318Z,52.96
2018-06-19T21:54:04.289Z,52.35
2018-06-19T21:56:35.911Z,52.17
2018-06-19T21:59:06.400Z,53.20
2018-06-19T22:01:36.978Z,54.45
2018-06-19T22:04:07.226Z,54.80
2018-06-19T22:06:37.975Z,56.17
2018-06-19T22:09:09.334Z,55.53
2018-06-19T22:11:40.007Z,55.97
2018-06-19T22:14:10.679Z,56.21
2018-06-19T22:16:41.270Z,56.08
2018-06-19T22:19:12.286Z,55.42
2018-06-19T22:22:04.124Z,55.58
2018-06-19T22:24:34.694Z,55.46
2018-06-19T22:27:05.269Z,55.83
2018-06-19T22:29:36.065Z,55.44
2018-06-19T22:32:06.712Z,55.69
2018-06-19T22:34:37.401Z,55.27
2018-06-19T22:37:07.486Z,54.71
2018-06-19T22:39:38.281Z,54.77
2018-06-19T22:42:08.983Z,54.75
2018-06-19T22:44:39.597Z,54.61
2018-06-19T22:47:10.304Z,54.17
2018-06-19T22:49:41.341Z,54.74
2018-06-19T22:52:12.010Z,55.35
2018-06-19T22:54:42.416Z,55.23
2018-06-19T22:57:13.018Z,54.84
2018-06-19T22:59:44.011Z,55.26
2018-06-19T23:02:14.497Z,55.15
2018-06-19T23:04:45.331Z,53.73
2018-06-19T23:07:16.139Z,53.97
2018-06-19T23:09:47.002Z,54.27
2018-06-19T23:12:17.630Z,53.99
2018-06-19T23:14:48.366Z,53.98
2018-06-19T23:17:18.993Z,54.55
2018-06-19T23:19:49.661Z,54.34
2018-06-19T23:22:21.222Z,54.43
2018-06-19T23:24:51.581Z,55.56
2018-06-19T23:27:22.314Z,54.86
2018-06-19T23:29:53.253Z,54.71
2018-06-19T23:32:23.886Z,53.92
2018-06-19T23:34:54.734Z,54.25
2018-06-19T23:37:25.419Z,53.95
2018-06-19T23:39:56.009Z,54.53
2018-06-19T23:42:26.621Z,53.76
2018-06-19T23:44:57.623Z,53.69
2018-06-19T23:47:28.416Z,54.28
2018-06-19T23:49:59.303Z,53.50
2018-06-19T23:52:30.354Z,53.97
2018-06-19T23:55:01.420Z,53.15
2018-06-19T23:57:32.069Z,52.29
